createdAt,value
2023-08-08T00:00:38.209Z,1.1
2023-08-08T00:15:39.145Z,1.3
2023-08-08T00:30:40.282Z,1.3
2023-08-08T00:45:40.485Z,1.2
2023-08-08T01:00:41.760Z,1.3
2023-08-08T01:15:42.079Z,1.2
2023-08-08T01:30:42.178Z,1.2
2023-08-08T01:45:42.836Z,1.5
2023-08-08T02:00:43.662Z,1.3
2023-08-08T02:15:44.332Z,1.4
2023-08-08T02:30:44.846Z,1.5
2023-08-08T02:45:46.029Z,1.3
2023-08-08T03:00:46.121Z,1.4
2023-08-08T03:15:47.808Z,1.7
2023-08-08T03:30:47.500Z,1.8
2023-08-08T03:45:48.322Z,1.8
2023-08-08T04:00:06.886Z,2.1
2023-08-08T04:15:06.677Z,2.1
2023-08-08T04:30:07.148Z,2.2
2023-08-08T04:45:07.829Z,1.9
2023-08-08T05:00:08.249Z,1.9
2023-08-08T05:15:08.761Z,1.8
2023-08-08T05:30:09.784Z,1.7
2023-08-08T05:45:10.632Z,1.6
2023-08-08T06:00:11.040Z,2
2023-08-08T06:15:12.215Z,1.6
2023-08-08T06:30:13.375Z,1.7
2023-08-08T06:45:13.430Z,1.6
2023-08-08T07:00:14.575Z,1.2
2023-08-08T07:15:14.670Z,1.3
2023-08-08T07:30:15.234Z,1.2
2023-08-08T07:45:15.834Z,1.2
2023-08-08T08:00:16.572Z,1.3
2023-08-08T08:15:17.458Z,1.5
2023-08-08T08:30:20.167Z,1
2023-08-08T08:45:18.571Z,1.2
2023-08-08T09:00:20.572Z,1
2023-08-08T09:15:20.634Z,1.5
2023-08-08T09:30:21.128Z,1.1
2023-08-08T09:45:21.387Z,0.9
2023-08-08T10:00:24.030Z,0.8
2023-08-08T10:15:25.256Z,0.9
2023-08-08T10:30:25.944Z,1.3
2023-08-08T10:45:26.143Z,1.2
2023-08-08T11:00:29.723Z,1
2023-08-08T11:15:30.560Z,0.9
2023-08-08T11:30:30.072Z,0.9
2023-08-08T11:45:30.604Z,0.9
2023-08-08T12:00:32.785Z,1
2023-08-08T12:15:31.929Z,1
2023-08-08T12:30:32.992Z,1
2023-08-08T12:45:33.198Z,0.9
2023-08-08T13:00:34.339Z,0.9
2023-08-08T13:15:34.479Z,1.1
2023-08-08T13:30:35.859Z,1
2023-08-08T13:45:35.719Z,1
2023-08-08T14:00:36.820Z,0.8
2023-08-08T14:15:36.568Z,0.9
2023-08-08T14:30:42.305Z,1
2023-08-08T14:45:50.272Z,1.1
2023-08-08T15:00:39.232Z,0.9
2023-08-08T15:15:39.701Z,1.1
2023-08-08T15:30:40.581Z,1.1
2023-08-08T15:45:40.428Z,1.1
2023-08-08T16:00:42.353Z,1.1
2023-08-08T16:15:42.032Z,0.9
2023-08-08T16:30:43.632Z,1
2023-08-08T16:45:44.500Z,1.1
2023-08-08T17:00:44.693Z,1.2
2023-08-08T17:15:44.951Z,1.4
2023-08-08T17:30:46.212Z,1.2
2023-08-08T17:45:55.803Z,1.3
2023-08-08T18:00:48.965Z,1.3
2023-08-08T18:15:48.251Z,1.3
2023-08-08T18:30:49.187Z,2.8
2023-08-08T18:45:50.457Z,1.9
2023-08-08T19:00:53.123Z,1.4
2023-08-08T19:15:50.584Z,1.8
2023-08-08T19:30:52.113Z,1.5
2023-08-08T19:45:52.782Z,1.5
2023-08-08T20:00:52.129Z,1.6
2023-08-08T20:15:53.130Z,2.2
2023-08-08T20:30:54.833Z,1.6
2023-08-08T20:45:54.692Z,1.8
2023-08-08T21:00:56.055Z,2.2
2023-08-08T21:15:56.177Z,1.8
2023-08-08T21:30:56.395Z,1.7
2023-08-08T21:46:06.318Z,1.4
2023-08-08T22:00:34.580Z,1.7
2023-08-08T22:15:34.482Z,1.8
2023-08-08T22:30:34.484Z,1.7
2023-08-08T22:45:35.252Z,1.9
2023-08-08T23:00:39.561Z,1.6
2023-08-08T23:15:36.295Z,2
2023-08-08T23:30:37.342Z,1.6
2023-08-08T23:45:39.425Z,2.1
